Time;durP1;ratioP1;P1;durP2;ratioP2;P2;SDS_P1;SDS_P2;PMS_P1;PMS_P2;Temp;Humidity;BMP_temperature;BMP_pressure;BME280_temperature;BME280_humidity;BME280_pressure;Samples;Min_cycle;Max_cycle;Signal;HPM_P1;HPM_P2
2023/03/25 00:01:31;;;;;;;5.18;3.95;;;;;;;6.16;70.36;98594.22;5033348;28;20025;-54
2023/03/25 00:03:59;;;;;;;6.57;4.20;;;;;;;6.37;70.01;98637.75;5033141;28;20033;-54
2023/03/25 00:06:29;;;;;;;8.43;4.28;;;;;;;6.37;70.01;98638.59;5016802;28;20041;-52
2023/03/25 00:08:56;;;;;;;6.32;4.43;;;;;;;6.29;70.25;98609.16;5013546;28;20041;-54
2023/03/25 00:11:22;;;;;;;7.47;3.88;;;;;;;6.49;69.82;98631.41;5013482;28;20030;-55
2023/03/25 00:13:48;;;;;;;4.97;3.65;;;;;;;6.51;69.60;98628.63;5013254;28;20099;-57
2023/03/25 00:16:15;;;;;;;6.22;4.10;;;;;;;6.46;69.64;98608.56;5013529;28;20030;-54
2023/03/25 00:18:40;;;;;;;8.18;4.53;;;;;;;6.51;69.68;98621.50;5033160;28;20030;-56
2023/03/25 00:21:10;;;;;;;6.43;4.25;;;;;;;6.51;69.54;98626.81;5033117;28;20366;-57
2023/03/25 00:23:37;;;;;;;6.72;3.88;;;;;;;6.50;69.66;98610.97;5032797;28;20174;-54
2023/03/25 00:26:03;;;;;;;8.93;4.07;;;;;;;6.46;69.92;98605.91;5032894;28;20471;-52
2023/03/25 00:28:32;;;;;;;6.97;3.95;;;;;;;6.47;70.01;98596.97;5032063;28;20021;-53
2023/03/25 00:31:04;;;;;;;6.82;3.88;;;;;;;6.50;69.67;98597.69;5032802;28;20026;-55
2023/03/25 00:33:30;;;;;;;7.20;3.95;;;;;;;6.32;69.55;98566.38;5032878;28;20030;-51
2023/03/25 00:35:58;;;;;;;7.40;4.30;;;;;;;6.44;69.52;98593.75;5032708;28;20337;-55
2023/03/25 00:38:34;;;;;;;7.60;3.88;;;;;;;6.36;69.56;98575.78;5013533;28;20129;-58
2023/03/25 00:41:10;;;;;;;7.22;3.92;;;;;;;6.48;69.73;98573.91;5013056;28;20041;-53
2023/03/25 00:43:35;;;;;;;5.85;3.55;;;;;;;6.44;69.51;98575.13;5012780;28;20295;-53
2023/03/25 00:46:01;;;;;;;4.20;3.28;;;;;;;6.50;69.21;98573.75;5012060;28;20046;-56
2023/03/25 00:48:26;;;;;;;4.85;3.25;;;;;;;6.51;69.34;98560.34;5012183;28;20042;-55
2023/03/25 00:50:52;;;;;;;5.30;3.60;;;;;;;6.49;69.19;98564.09;5012865;28;20041;-56
2023/03/25 00:53:17;;;;;;;6.70;3.72;;;;;;;6.47;69.41;98559.75;5021815;28;20036;-55
2023/03/25 00:55:43;;;;;;;6.32;3.40;;;;;;;6.51;69.25;98563.00;5032513;28;20124;-54
2023/03/25 00:58:08;;;;;;;3.90;2.90;;;;;;;6.45;69.25;98561.69;5032252;28;20065;-54
2023/03/25 01:00:34;;;;;;;6.32;3.55;;;;;;;6.45;69.31;98575.00;5012865;28;20061;-53
2023/03/25 01:03:02;;;;;;;9.20;3.20;;;;;;;6.41;69.54;98552.28;5012693;28;20119;-55
2023/03/25 01:05:28;;;;;;;4.22;3.00;;;;;;;6.41;69.47;98554.94;5012597;28;20038;-56
2023/03/25 01:07:54;;;;;;;6.88;3.17;;;;;;;6.35;69.61;98539.53;5012956;28;20057;-53
2023/03/25 01:10:20;;;;;;;3.58;3.03;;;;;;;6.37;69.82;98548.22;5013604;28;20139;-56
2023/03/25 01:12:46;;;;;;;4.63;3.22;;;;;;;6.37;69.72;98550.00;5013001;28;20361;-57
2023/03/25 01:15:11;;;;;;;6.28;4.00;;;;;;;6.36;69.92;98543.00;5012489;28;20295;-54
2023/03/25 01:17:37;;;;;;;5.45;3.60;;;;;;;6.23;70.00;98513.97;5024601;28;20124;-54
2023/03/25 01:20:05;;;;;;;9.18;3.72;;;;;;;6.46;69.46;98536.78;5016422;28;20084;-52
2023/03/25 01:22:31;;;;;;;6.28;3.50;;;;;;;6.51;69.34;98543.53;5012696;28;20080;-55
2023/03/25 01:24:56;;;;;;;5.82;3.63;;;;;;;6.57;69.07;98540.38;5012480;28;20065;-55
2023/03/25 01:27:23;;;;;;;5.85;3.65;;;;;;;6.55;69.05;98544.97;5012578;28;20030;-62
2023/03/25 01:29:49;;;;;;;5.95;3.47;;;;;;;6.57;69.06;98543.84;5012856;28;20026;-54
2023/03/25 01:32:15;;;;;;;7.90;3.53;;;;;;;6.51;69.18;98532.91;5012432;28;20364;-55
2023/03/25 01:34:41;;;;;;;7.15;3.90;;;;;;;6.50;68.99;98526.75;5012162;28;20041;-55
2023/03/25 01:37:08;;;;;;;6.40;3.50;;;;;;;6.35;69.10;98498.78;5012361;28;20122;-54
2023/03/25 01:39:35;;;;;;;8.10;3.90;;;;;;;6.56;68.92;98520.06;5024246;28;20120;-54
2023/03/25 01:42:01;;;;;;;5.35;3.55;;;;;;;6.59;69.22;98525.13;5032480;28;20022;-56
2023/03/25 01:44:28;;;;;;;7.30;3.70;;;;;;;6.61;68.97;98512.53;5031491;28;20036;-54
2023/03/25 01:46:55;;;;;;;5.93;4.22;;;;;;;6.64;68.86;98506.94;5032290;28;20033;-58
2023/03/25 01:49:25;;;;;;;6.60;3.47;;;;;;;6.70;68.99;98492.28;5033278;28;20029;-54
2023/03/25 01:52:00;;;;;;;5.15;3.42;;;;;;;6.75;68.87;98495.41;5035169;28;20448;-52
2023/03/25 01:54:26;;;;;;;4.33;3.23;;;;;;;6.74;68.97;98497.19;5030724;28;20105;-54
2023/03/25 01:56:53;;;;;;;6.32;4.07;;;;;;;6.79;68.77;98490.66;5017777;28;20362;-56
2023/03/25 01:59:23;;;;;;;5.85;3.53;;;;;;;6.84;68.63;98483.94;5019293;28;20109;-55
2023/03/25 02:01:50;;;;;;;6.28;3.50;;;;;;;6.82;68.78;98483.25;5016220;28;20034;-54
2023/03/25 02:04:30;;;;;;;5.63;3.53;;;;;;;6.84;68.59;98465.31;5034584;28;20033;-56
2023/03/25 02:06:57;;;;;;;9.30;3.67;;;;;;;6.91;68.38;98470.13;5018262;28;20123;-54
2023/03/25 02:09:25;;;;;;;4.97;3.47;;;;;;;6.89;68.68;98476.44;5035033;28;20034;-51
2023/03/25 02:11:54;;;;;;;7.43;3.45;;;;;;;6.91;68.58;98473.63;5035570;28;20082;-56
2023/03/25 02:14:26;;;;;;;6.35;3.75;;;;;;;6.80;68.85;98449.78;5035814;28;20095;-56
2023/03/25 02:17:39;;;;;;;6.20;3.78;;;;;;;7.07;68.55;98475.78;5030352;28;20026;-53
2023/03/25 02:20:40;;;;;;;8.63;3.97;;;;;;;7.12;68.52;98470.06;5015406;28;20052;-55
2023/03/25 02:23:41;;;;;;;10.10;3.50;;;;;;;7.15;68.52;98470.63;5015508;28;20388;-57
2023/03/25 02:26:44;;;;;;;6.97;3.30;;;;;;;7.17;68.50;98462.50;5030337;28;20487;-55
2023/03/25 02:29:35;;;;;;;10.55;4.00;;;;;;;7.16;68.54;98458.16;5022557;28;20073;-55
2023/03/25 02:32:22;;;;;;;7.15;3.78;;;;;;;7.15;68.93;98459.13;5023453;28;20107;-53
2023/03/25 02:34:59;;;;;;;10.88;4.47;;;;;;;7.14;68.91;98441.47;5015135;28;20033;-51
2023/03/25 02:37:51;;;;;;;11.23;4.57;;;;;;;7.21;68.77;98434.63;5016195;28;20468;-62
2023/03/25 02:40:34;;;;;;;7.78;4.00;;;;;;;7.33;68.52;98422.88;5014997;28;20418;-54
2023/03/25 02:43:13;;;;;;;5.47;3.75;;;;;;;7.44;68.29;98424.59;5015083;28;20029;-57
2023/03/25 02:45:52;;;;;;;8.90;3.80;;;;;;;7.61;68.24;98428.38;5014046;28;20124;-56
2023/03/25 02:48:34;;;;;;;6.95;3.80;;;;;;;7.60;67.52;98393.91;5033763;28;20041;-55
2023/03/25 02:51:09;;;;;;;5.28;3.25;;;;;;;7.93;67.05;98409.56;5023405;28;20030;-55
2023/03/25 02:53:36;;;;;;;6.15;3.65;;;;;;;7.95;66.67;98411.13;5015101;28;20042;-58
2023/03/25 02:56:09;;;;;;;7.32;3.70;;;;;;;7.94;66.53;98389.94;5014849;28;20042;-55
2023/03/25 02:58:38;;;;;;;5.88;3.30;;;;;;;8.18;65.90;98411.63;5014915;28;20041;-55
2023/03/25 03:01:04;;;;;;;8.60;3.13;;;;;;;8.24;65.66;98430.72;5014326;28;20113;-59
2023/03/25 03:03:29;;;;;;;5.50;3.50;;;;;;;8.34;65.29;98402.22;5014882;28;20105;-51
2023/03/25 03:05:59;;;;;;;6.78;3.67;;;;;;;8.41;65.27;98402.47;5016396;28;20026;-55
2023/03/25 03:08:34;;;;;;;4.10;3.28;;;;;;;8.47;64.91;98401.88;5034502;28;20099;-57
2023/03/25 03:11:21;;;;;;;4.68;3.17;;;;;;;8.61;64.85;98392.59;5034447;28;20033;-54
2023/03/25 03:14:07;;;;;;;5.80;3.30;;;;;;;8.63;64.77;98403.13;5031839;28;20041;-55
2023/03/25 03:16:47;;;;;;;4.90;3.40;;;;;;;8.67;64.24;98389.34;5013460;28;20045;-54
2023/03/25 03:19:37;;;;;;;5.85;3.58;;;;;;;8.73;64.08;98383.44;5013468;28;20041;-54
2023/03/25 03:22:20;;;;;;;4.90;3.13;;;;;;;8.70;63.74;98362.38;5014552;28;20029;-55
2023/03/25 03:25:02;;;;;;;4.90;3.88;;;;;;;8.79;63.83;98354.47;5014340;28;20026;-57
2023/03/25 03:27:37;;;;;;;5.57;3.63;;;;;;;8.76;63.71;98351.09;5028056;28;20334;-59
2023/03/25 03:30:10;;;;;;;5.75;3.75;;;;;;;8.87;63.70;98355.41;5033979;28;20075;-57
2023/03/25 03:33:14;;;;;;;6.85;4.03;;;;;;;9.00;63.52;98349.69;5033047;28;20029;-55
2023/03/25 03:35:56;;;;;;;5.97;3.90;;;;;;;8.92;63.40;98333.56;5029655;28;20045;-53
2023/03/25 03:38:29;;;;;;;7.00;3.33;;;;;;;8.97;63.54;98347.34;5025479;28;20449;-54
2023/03/25 03:41:00;;;;;;;6.30;3.83;;;;;;;8.98;63.61;98340.16;5014290;28;20128;-56
2023/03/25 03:43:32;;;;;;;5.28;3.60;;;;;;;9.00;63.27;98328.34;5014377;28;20033;-57
2023/03/25 03:46:04;;;;;;;7.13;3.63;;;;;;;9.00;62.98;98322.16;5015373;28;20075;-58
2023/03/25 03:48:41;;;;;;;6.85;3.60;;;;;;;8.97;62.75;98293.94;5033727;28;20044;-61
2023/03/25 03:51:27;;;;;;;5.03;3.70;;;;;;;9.18;63.21;98311.50;5033637;28;20348;-54
2023/03/25 03:54:10;;;;;;;7.32;3.90;;;;;;;9.23;62.94;98317.22;5033826;28;20044;-54
2023/03/25 03:56:53;;;;;;;7.95;4.10;;;;;;;9.30;62.51;98320.13;5033605;28;20037;-55
2023/03/25 03:59:40;;;;;;;6.22;3.63;;;;;;;9.36;62.48;98308.81;5033530;28;20041;-52
2023/03/25 04:02:22;;;;;;;6.03;4.30;;;;;;;9.37;62.57;98313.19;5019705;28;20376;-50
2023/03/25 04:04:49;;;;;;;6.88;4.47;;;;;;;9.32;62.22;98300.28;5012421;28;20424;-56
2023/03/25 04:07:18;;;;;;;9.30;4.57;;;;;;;9.37;62.14;98298.97;5026689;28;20029;-55
2023/03/25 04:09:53;;;;;;;6.07;4.10;;;;;;;9.42;62.18;98291.34;5033486;28;20065;-54
2023/03/25 04:12:31;;;;;;;5.00;3.17;;;;;;;9.41;62.17;98265.63;5032505;28;20413;-55
2023/03/25 04:15:00;;;;;;;8.25;3.97;;;;;;;9.55;61.66;98278.41;5032727;28;20037;-51
2023/03/25 04:17:28;;;;;;;7.40;3.72;;;;;;;9.54;61.29;98290.09;5033151;28;20044;-55
2023/03/25 04:19:55;;;;;;;7.00;4.30;;;;;;;9.57;61.16;98289.78;5031910;28;20029;-53
2023/03/25 04:22:21;;;;;;;6.88;4.20;;;;;;;9.61;61.38;98276.97;5030296;28;20203;-57
2023/03/25 04:24:53;;;;;;;7.65;4.07;;;;;;;9.58;61.17;98267.41;5028506;28;20116;-55
2023/03/25 04:27:21;;;;;;;5.65;4.03;;;;;;;9.59;60.99;98254.91;5013315;28;20099;-54
2023/03/25 04:29:50;;;;;;;7.88;4.40;;;;;;;9.67;60.95;98260.31;5013060;28;20033;-53
2023/03/25 04:32:16;;;;;;;6.45;4.65;;;;;;;9.59;60.43;98229.00;5012984;28;20369;-55
2023/03/25 04:34:42;;;;;;;5.68;4.15;;;;;;;9.76;60.62;98258.53;5013362;28;20037;-53
2023/03/25 04:37:08;;;;;;;7.25;4.18;;;;;;;9.63;60.26;98224.19;5011815;28;20364;-52
2023/03/25 04:39:34;;;;;;;5.18;3.67;;;;;;;9.86;59.87;98258.41;5012997;28;20471;-55
2023/03/25 04:42:02;;;;;;;9.15;4.40;;;;;;;9.89;60.08;98250.94;5013249;28;20572;-55
2023/03/25 04:44:32;;;;;;;6.05;3.97;;;;;;;9.94;59.95;98252.28;5014904;28;20030;-53
2023/03/25 04:46:59;;;;;;;6.78;4.10;;;;;;;9.99;59.54;98239.28;5032868;28;20080;-60
2023/03/25 04:49:25;;;;;;;5.70;4.03;;;;;;;10.03;59.73;98229.94;5022106;28;20034;-61
2023/03/25 04:51:52;;;;;;;5.85;3.83;;;;;;;10.14;58.86;98231.47;5024878;28;20039;-56
2023/03/25 04:54:20;;;;;;;4.22;3.63;;;;;;;10.17;59.07;98232.00;5032158;28;20435;-56
2023/03/25 04:56:49;;;;;;;6.25;3.97;;;;;;;10.24;58.56;98215.31;5032420;28;20395;-57
2023/03/25 04:59:17;;;;;;;5.65;4.10;;;;;;;10.27;58.69;98214.97;5032792;28;20033;-57
2023/03/25 05:01:44;;;;;;;6.18;4.07;;;;;;;10.27;58.18;98212.31;5032143;28;20345;-61
2023/03/25 05:04:12;;;;;;;5.95;4.10;;;;;;;10.22;58.22;98195.91;5032123;28;20026;-57
2023/03/25 05:06:45;;;;;;;6.82;3.90;;;;;;;10.41;57.89;98206.38;5031514;28;20364;-59
2023/03/25 05:09:17;;;;;;;6.22;3.75;;;;;;;10.47;58.04;98213.75;5031669;28;20033;-57
2023/03/25 05:11:44;;;;;;;8.05;4.00;;;;;;;10.45;57.67;98210.41;5020759;28;20440;-60
2023/03/25 05:14:11;;;;;;;5.05;4.03;;;;;;;10.55;57.65;98212.09;5011694;28;20030;-59
2023/03/25 05:16:37;;;;;;;9.30;4.00;;;;;;;10.61;57.60;98214.13;5012614;28;20445;-60
2023/03/25 05:19:05;;;;;;;6.70;4.47;;;;;;;10.60;57.19;98199.03;5012643;28;20030;-59
2023/03/25 05:21:36;;;;;;;8.25;5.28;;;;;;;10.86;57.47;98236.41;5012635;28;20116;-57
2023/03/25 05:24:03;;;;;;;7.75;5.47;;;;;;;10.82;57.92;98215.47;5014635;28;20029;-57
2023/03/25 05:26:33;;;;;;;7.80;5.55;;;;;;;10.82;57.93;98216.34;5015518;28;20037;-62
2023/03/25 05:29:12;;;;;;;8.05;5.03;;;;;;;10.89;57.98;98230.72;5015481;28;20420;-60
2023/03/25 05:31:40;;;;;;;7.45;5.40;;;;;;;10.73;58.26;98220.84;5026384;28;20041;-53
2023/03/25 05:34:07;;;;;;;9.40;5.35;;;;;;;10.60;58.41;98209.75;5036134;28;20037;-66
2023/03/25 05:36:33;;;;;;;7.25;5.18;;;;;;;10.64;58.44;98227.19;5016978;28;20100;-66
2023/03/25 05:38:59;;;;;;;10.30;5.38;;;;;;;10.59;58.64;98234.84;5014964;28;20045;-66
2023/03/25 05:41:31;;;;;;;7.97;5.55;;;;;;;10.58;59.14;98225.13;5014733;28;20084;-66
2023/03/25 05:43:59;;;;;;;7.13;5.28;;;;;;;10.62;59.13;98218.47;5015686;28;20068;-64
2023/03/25 05:46:27;;;;;;;8.15;5.32;;;;;;;10.63;58.88;98212.94;5015072;28;20115;-63
2023/03/25 05:48:52;;;;;;;11.13;5.15;;;;;;;10.61;58.95;98206.09;5016251;28;20388;-59
2023/03/25 05:51:20;;;;;;;7.70;4.97;;;;;;;10.58;59.31;98203.72;5033563;28;20040;-61
2023/03/25 05:53:50;;;;;;;8.75;5.13;;;;;;;10.54;59.49;98213.09;5035752;28;20038;-59
2023/03/25 05:56:18;;;;;;;8.32;5.50;;;;;;;10.53;59.73;98219.44;5035819;28;20061;-60
2023/03/25 05:58:44;;;;;;;6.97;5.10;;;;;;;10.51;59.59;98208.91;5035619;28;20037;-57
2023/03/25 06:01:15;;;;;;;6.35;4.97;;;;;;;10.60;59.62;98215.09;5033529;28;20109;-58
2023/03/25 06:03:42;;;;;;;8.98;5.80;;;;;;;10.64;59.76;98205.78;5035706;28;20044;-53
2023/03/25 06:06:17;;;;;;;7.40;5.60;;;;;;;10.77;59.81;98206.09;5035892;28;20064;-58
2023/03/25 06:08:50;;;;;;;6.90;5.30;;;;;;;10.96;59.36;98214.84;5035464;28;20427;-56
2023/03/25 06:11:17;;;;;;;8.27;5.20;;;;;;;11.10;58.72;98193.75;5034502;28;20416;-56
2023/03/25 06:13:51;;;;;;;7.72;4.95;;;;;;;11.20;58.17;98181.03;5035208;28;20056;-56
2023/03/25 06:16:19;;;;;;;6.88;5.18;;;;;;;11.38;57.80;98190.72;5035113;28;20049;-57
2023/03/25 06:18:49;;;;;;;8.07;5.82;;;;;;;11.25;57.78;98154.56;5035222;28;20052;-62
2023/03/25 06:21:17;;;;;;;9.35;5.13;;;;;;;11.50;57.97;98194.72;5034055;28;20021;-61
2023/03/25 06:23:43;;;;;;;9.52;6.18;;;;;;;11.46;57.79;98180.84;5035163;28;20044;-64
2023/03/25 06:26:08;;;;;;;13.02;5.63;;;;;;;11.42;57.97;98175.97;5015944;28;20022;-69
2023/03/25 06:28:34;;;;;;;7.18;5.65;;;;;;;11.37;58.13;98181.84;5014472;28;20033;-64
2023/03/25 06:31:02;;;;;;;9.82;5.70;;;;;;;11.16;58.08;98156.41;4998205;28;20405;-62
2023/03/25 06:33:28;;;;;;;8.40;5.53;;;;;;;11.21;58.52;98169.31;5015339;28;20029;-62
2023/03/25 06:35:53;;;;;;;11.77;6.13;;;;;;;11.15;59.01;98175.34;5014461;28;20350;-61
2023/03/25 06:38:23;;;;;;;8.68;6.18;;;;;;;11.00;59.65;98175.19;5016559;28;20057;-62
2023/03/25 06:40:48;;;;;;;8.25;6.18;;;;;;;10.89;59.96;98176.34;5034719;28;20081;-66
2023/03/25 06:43:14;;;;;;;11.25;5.43;;;;;;;10.74;60.38;98187.69;5034839;28;20065;-62
2023/03/25 06:45:40;;;;;;;8.75;6.18;;;;;;;10.60;61.77;98183.84;5034612;28;20034;-64
2023/03/25 06:48:06;;;;;;;8.25;6.57;;;;;;;10.47;62.42;98178.97;5031412;28;20145;-63
2023/03/25 06:50:32;;;;;;;10.27;6.40;;;;;;;10.42;63.08;98183.97;5014770;28;20104;-62
2023/03/25 06:52:57;;;;;;;10.98;6.53;;;;;;;10.37;63.51;98177.41;5014263;28;20051;-63
2023/03/25 06:55:23;;;;;;;13.25;6.97;;;;;;;10.33;63.94;98171.53;5014121;28;20022;-63
2023/03/25 06:57:49;;;;;;;9.48;7.38;;;;;;;10.28;64.51;98173.88;5014515;28;20049;-63
2023/03/25 07:00:19;;;;;;;9.82;6.75;;;;;;;9.78;64.75;98093.50;5014803;28;20060;-63
2023/03/25 07:02:45;;;;;;;9.52;7.72;;;;;;;10.26;65.71;98184.75;5014989;28;20029;-63
2023/03/25 07:05:11;;;;;;;9.45;7.30;;;;;;;10.19;65.83;98179.19;5014692;28;20037;-65
2023/03/25 07:07:36;;;;;;;9.93;7.28;;;;;;;10.15;66.44;98180.53;5014898;28;20475;-64
2023/03/25 07:10:02;;;;;;;11.68;8.50;;;;;;;10.13;66.51;98166.47;5032667;28;20030;-56
2023/03/25 07:12:28;;;;;;;12.02;8.43;;;;;;;10.11;66.78;98168.44;5032546;28;20048;-57
2023/03/25 07:14:56;;;;;;;21.42;11.30;;;;;;;10.15;67.28;98172.50;5034193;28;20025;-53
2023/03/25 07:17:22;;;;;;;18.17;9.07;;;;;;;10.24;66.77;98173.34;5034168;28;20028;-60
2023/03/25 07:19:47;;;;;;;13.77;8.18;;;;;;;10.13;66.71;98152.25;5033790;28;20041;-63
2023/03/25 07:22:13;;;;;;;10.60;7.82;;;;;;;10.25;67.08;98184.88;5033039;28;20076;-62
2023/03/25 07:24:39;;;;;;;13.27;8.75;;;;;;;10.19;67.12;98173.84;5032696;28;20041;-62
2023/03/25 07:27:04;;;;;;;12.85;8.20;;;;;;;10.19;67.23;98167.66;5026503;28;20033;-62
2023/03/25 07:29:30;;;;;;;14.38;8.30;;;;;;;10.23;67.49;98176.19;5014352;28;20188;-61
2023/03/25 07:31:55;;;;;;;10.85;8.45;;;;;;;10.14;67.02;98157.47;5013583;28;20029;-63
2023/03/25 07:34:20;;;;;;;11.25;8.65;;;;;;;10.24;67.40;98177.88;5012885;28;20030;-61
2023/03/25 07:36:46;;;;;;;13.65;8.50;;;;;;;10.19;67.37;98148.94;5030750;28;20052;-63
2023/03/25 07:39:11;;;;;;;14.13;8.48;;;;;;;10.24;67.32;98149.25;5032830;28;20143;-63
2023/03/25 07:41:37;;;;;;;11.85;8.45;;;;;;;10.28;67.46;98156.00;5033668;28;20075;-61
2023/03/25 07:44:03;;;;;;;15.18;9.05;;;;;;;10.28;67.53;98152.47;5033721;28;20419;-63
2023/03/25 07:46:28;;;;;;;16.52;9.20;;;;;;;10.28;67.65;98165.84;5030720;28;20044;-62
2023/03/25 07:48:54;;;;;;;14.20;8.85;;;;;;;10.20;67.61;98167.50;5013739;28;20069;-61
2023/03/25 07:51:19;;;;;;;16.70;9.80;;;;;;;10.26;68.23;98170.50;5013691;28;20789;-63
2023/03/25 07:53:45;;;;;;;15.85;9.43;;;;;;;10.25;68.21;98176.88;5012777;28;20042;-63
2023/03/25 07:56:11;;;;;;;20.00;9.73;;;;;;;10.29;68.23;98176.38;5012816;28;20022;-63
2023/03/25 07:58:37;;;;;;;12.85;9.05;;;;;;;10.37;68.05;98186.28;5012992;28;20045;-62
2023/03/25 08:01:03;;;;;;;13.70;9.48;;;;;;;10.16;68.40;98131.38;5020544;28;20034;-64
2023/03/25 08:03:29;;;;;;;12.40;9.65;;;;;;;10.40;67.90;98167.25;5012685;28;20049;-61
2023/03/25 08:05:55;;;;;;;13.00;9.27;;;;;;;10.56;67.52;98166.44;5013351;28;20409;-62
2023/03/25 08:08:20;;;;;;;10.50;9.05;;;;;;;10.60;67.46;98177.63;5029548;28;20035;-63
2023/03/25 08:10:47;;;;;;;15.82;9.98;;;;;;;10.59;67.69;98167.94;5032650;28;20045;-63
2023/03/25 08:13:13;;;;;;;13.77;9.73;;;;;;;10.60;68.07;98174.97;5015888;28;20029;-63
2023/03/25 08:15:39;;;;;;;10.73;9.43;;;;;;;10.61;68.15;98190.88;5033094;28;20124;-63
2023/03/25 08:18:05;;;;;;;12.85;10.05;;;;;;;10.60;68.16;98193.69;5033224;28;20041;-63
2023/03/25 08:20:32;;;;;;;23.42;11.43;;;;;;;10.49;68.21;98176.13;5032336;28;20045;-61
2023/03/25 08:22:58;;;;;;;16.85;11.38;;;;;;;10.48;68.26;98187.81;5015874;28;20330;-63
2023/03/25 08:25:23;;;;;;;16.35;11.23;;;;;;;10.60;68.84;98212.44;5013027;28;20036;-63
2023/03/25 08:27:49;;;;;;;15.88;10.85;;;;;;;10.62;68.54;98213.94;5025487;28;20100;-62
2023/03/25 08:30:14;;;;;;;23.25;12.82;;;;;;;10.61;68.65;98203.44;5033173;28;20038;-63
2023/03/25 08:32:40;;;;;;;16.50;11.02;;;;;;;10.40;68.58;98177.94;5032918;28;20040;-63
2023/03/25 08:35:06;;;;;;;18.13;10.57;;;;;;;10.55;69.43;98204.91;5028855;28;20105;-61
2023/03/25 08:37:36;;;;;;;19.33;11.32;;;;;;;10.56;69.26;98206.59;5012555;28;20082;-63
2023/03/25 08:40:09;;;;;;;15.88;11.35;;;;;;;10.59;69.62;98206.25;5013361;28;20093;-62
2023/03/25 08:42:35;;;;;;;18.38;11.68;;;;;;;10.56;69.36;98198.56;5012795;28;20026;-62
2023/03/25 08:45:01;;;;;;;11.85;9.85;;;;;;;10.68;68.84;98201.75;5012608;28;20060;-62
2023/03/25 08:47:27;;;;;;;13.05;9.98;;;;;;;10.70;69.04;98199.75;5022067;28;20032;-62
2023/03/25 08:49:52;;;;;;;13.57;10.85;;;;;;;10.79;68.65;98200.59;5022873;28;20037;-64
2023/03/25 08:52:18;;;;;;;13.13;10.25;;;;;;;10.88;68.50;98199.59;5012681;28;20117;-64
2023/03/25 08:54:43;;;;;;;13.77;9.85;;;;;;;10.93;67.64;98191.06;5012957;28;20030;-62
2023/03/25 08:57:09;;;;;;;13.88;9.63;;;;;;;11.00;67.72;98205.47;5012633;28;20026;-62
2023/03/25 08:59:34;;;;;;;12.57;9.52;;;;;;;10.97;67.96;98205.78;5012623;28;20045;-63
2023/03/25 09:02:00;;;;;;;14.65;9.93;;;;;;;10.96;67.62;98197.91;5012839;28;20085;-63
2023/03/25 09:04:25;;;;;;;13.57;9.70;;;;;;;10.94;67.83;98202.59;5012686;28;20062;-64
2023/03/25 09:06:51;;;;;;;13.55;9.80;;;;;;;10.97;67.83;98205.78;5018186;28;20109;-63
2023/03/25 09:09:17;;;;;;;13.73;9.75;;;;;;;11.03;67.81;98197.09;5032568;28;20103;-63
2023/03/25 09:11:44;;;;;;;11.85;9.93;;;;;;;10.80;67.62;98155.91;5031910;28;20026;-63
2023/03/25 09:14:09;;;;;;;11.52;9.23;;;;;;;11.14;67.26;98203.13;5017878;28;20563;-63
2023/03/25 09:16:35;;;;;;;12.70;9.63;;;;;;;11.02;66.99;98178.53;4995468;28;20057;-63
2023/03/25 09:19:01;;;;;;;14.70;10.40;;;;;;;11.01;66.97;98166.97;5012420;28;20030;-63
2023/03/25 09:21:27;;;;;;;18.33;10.60;;;;;;;11.21;66.93;98193.41;5011310;28;20084;-62
2023/03/25 09:23:52;;;;;;;14.50;10.10;;;;;;;11.32;66.85;98182.34;5011607;28;20448;-63
2023/03/25 09:26:18;;;;;;;15.57;9.90;;;;;;;11.48;66.10;98181.50;5014167;28;20033;-66
2023/03/25 09:28:43;;;;;;;12.23;10.02;;;;;;;11.59;65.73;98184.81;5031728;28;20033;-64
2023/03/25 09:31:09;;;;;;;13.32;10.45;;;;;;;11.79;65.04;98198.66;5031495;28;20041;-63
2023/03/25 09:33:35;;;;;;;14.90;10.90;;;;;;;11.86;64.93;98197.00;5031283;28;20030;-62
2023/03/25 09:36:02;;;;;;;15.07;9.90;;;;;;;11.95;64.78;98215.72;5023675;28;20481;-64
2023/03/25 09:38:28;;;;;;;12.95;10.07;;;;;;;11.93;64.42;98221.25;5012373;28;20441;-64
2023/03/25 09:40:54;;;;;;;15.02;10.00;;;;;;;11.94;64.98;98232.81;5012547;28;20049;-63
2023/03/25 09:43:38;;;;;;;14.88;10.07;;;;;;;11.97;64.82;98241.38;5012189;28;20034;-63
2023/03/25 09:46:04;;;;;;;13.07;9.93;;;;;;;11.82;64.81;98235.88;5012399;28;20034;-65
2023/03/25 09:48:39;;;;;;;13.52;10.90;;;;;;;11.65;64.93;98218.97;5014015;28;20085;-64
2023/03/25 09:51:11;;;;;;;16.77;11.20;;;;;;;11.68;65.57;98239.25;5032107;28;20038;-64
2023/03/25 09:53:52;;;;;;;17.38;11.38;;;;;;;11.74;65.49;98231.38;5031176;28;20041;-65
2023/03/25 09:56:23;;;;;;;17.52;11.13;;;;;;;11.74;65.58;98239.41;5032586;28;20029;-63
2023/03/25 09:58:51;;;;;;;18.48;12.15;;;;;;;11.78;65.50;98227.34;5027284;28;20026;-64
2023/03/25 10:01:16;;;;;;;16.90;11.85;;;;;;;11.87;65.14;98233.53;5012638;28;20042;-65
2023/03/25 10:04:01;;;;;;;17.95;11.45;;;;;;;12.04;65.00;98234.34;5011406;28;20095;-62
2023/03/25 10:06:29;;;;;;;14.20;11.40;;;;;;;11.92;64.99;98231.16;5012392;28;20038;-64
2023/03/25 10:09:09;;;;;;;14.77;11.13;;;;;;;12.01;64.72;98228.47;5012314;28;20033;-63
2023/03/25 10:11:58;;;;;;;17.25;11.50;;;;;;;12.11;64.75;98231.81;5015276;28;20047;-63
2023/03/25 10:14:57;;;;;;;15.80;11.75;;;;;;;12.28;64.31;98229.88;5016151;28;20109;-62
2023/03/25 10:17:53;;;;;;;17.00;11.65;;;;;;;12.46;63.38;98237.69;5025367;28;20346;-62
2023/03/25 10:20:35;;;;;;;20.80;11.50;;;;;;;12.73;62.90;98238.22;5031138;28;20048;-62
2023/03/25 10:23:17;;;;;;;20.17;11.18;;;;;;;12.87;62.67;98246.53;5028789;28;20045;-64
2023/03/25 10:25:46;;;;;;;14.63;10.77;;;;;;;12.82;62.34;98246.22;4998399;28;20404;-64
2023/03/25 10:28:18;;;;;;;12.20;10.32;;;;;;;12.78;62.39;98232.31;5015306;28;20852;-64
2023/03/25 10:30:49;;;;;;;14.30;11.13;;;;;;;13.00;62.02;98238.69;5015234;28;20053;-64
2023/03/25 10:33:27;;;;;;;16.23;10.75;;;;;;;12.99;61.54;98212.84;5015301;28;20081;-64
2023/03/25 10:35:54;;;;;;;13.93;10.10;;;;;;;13.12;61.29;98227.56;5014311;28;20087;-66
2023/03/25 10:38:25;;;;;;;18.10;11.52;;;;;;;13.11;61.38;98226.69;5025799;28;20041;-62
2023/03/25 10:41:15;;;;;;;15.02;10.93;;;;;;;13.21;61.55;98230.00;5033967;28;20048;-63
2023/03/25 10:43:42;;;;;;;14.25;10.70;;;;;;;13.07;61.47;98231.63;5034827;28;20037;-63
2023/03/25 10:46:26;;;;;;;13.73;11.43;;;;;;;13.14;61.39;98231.75;5033299;28;20120;-65
2023/03/25 10:48:52;;;;;;;12.65;11.20;;;;;;;13.15;61.34;98229.88;5015352;28;20053;-62
2023/03/25 10:51:37;;;;;;;13.82;11.48;;;;;;;13.34;61.63;98228.53;5015134;28;20113;-64
2023/03/25 10:54:03;;;;;;;13.75;11.25;;;;;;;13.27;61.04;98233.81;5014584;28;20042;-64
2023/03/25 10:56:56;;;;;;;16.45;11.38;;;;;;;13.40;61.51;98235.03;5014911;28;20096;-64
2023/03/25 10:59:31;;;;;;;14.85;11.20;;;;;;;13.25;61.38;98238.50;5014856;28;20456;-64
2023/03/25 11:01:58;;;;;;;15.75;12.52;;;;;;;13.13;61.68;98231.91;5013898;28;20029;-63
2023/03/25 11:04:33;;;;;;;13.75;11.68;;;;;;;13.06;62.13;98238.00;5014647;28;20105;-67
2023/03/25 11:06:59;;;;;;;16.02;11.50;;;;;;;12.94;62.56;98235.91;5014624;28;20041;-64
2023/03/25 11:09:29;;;;;;;18.10;12.13;;;;;;;12.86;62.64;98232.25;5014422;28;20038;-64
2023/03/25 11:11:58;;;;;;;17.65;14.15;;;;;;;12.80;62.96;98242.88;5030062;28;20033;-66
2023/03/25 11:14:26;;;;;;;21.67;18.15;;;;;;;12.82;62.87;98227.44;5034412;28;20052;-63
2023/03/25 11:16:58;;;;;;;34.10;22.63;;;;;;;12.88;62.74;98232.91;5033341;28;20052;-63
2023/03/25 11:19:30;;;;;;;31.05;22.92;;;;;;;12.87;63.08;98233.09;5014619;28;20092;-63
2023/03/25 11:22:00;;;;;;;30.45;22.45;;;;;;;12.77;63.05;98236.84;5012925;28;20360;-63
2023/03/25 11:24:31;;;;;;;25.65;19.77;;;;;;;12.72;63.22;98239.22;5014159;28;20099;-62
2023/03/25 11:26:56;;;;;;;22.05;17.77;;;;;;;12.49;63.64;98209.66;5014424;28;20452;-63
2023/03/25 11:29:26;;;;;;;17.08;13.55;;;;;;;12.64;63.47;98232.03;5013208;28;20025;-64
2023/03/25 11:32:07;;;;;;;15.50;12.88;;;;;;;12.72;63.94;98241.09;5014176;28;20112;-64
2023/03/25 11:34:40;;;;;;;19.38;15.02;;;;;;;12.63;63.86;98237.59;5021175;28;20029;-64
2023/03/25 11:37:21;;;;;;;16.42;13.10;;;;;;;12.69;64.12;98226.16;5031344;28;20056;-63
2023/03/25 11:39:54;;;;;;;15.80;12.88;;;;;;;12.68;63.86;98223.66;5013917;28;20067;-63
2023/03/25 11:42:27;;;;;;;16.58;12.52;;;;;;;12.63;63.70;98221.50;5013217;28;20038;-62
2023/03/25 11:44:58;;;;;;;22.35;12.65;;;;;;;12.67;63.80;98238.91;5014150;28;20034;-63
2023/03/25 11:47:37;;;;;;;16.55;12.15;;;;;;;12.55;63.91;98205.44;5012859;28;20334;-62